createdAt,value
2023-04-15T00:00:01.243Z,97.90
2023-04-15T00:01:01.236Z,97.28
2023-04-15T00:02:01.500Z,97.38
2023-04-15T00:03:01.380Z,97.17
2023-04-15T00:04:01.339Z,96.76
2023-04-15T00:05:01.266Z,96.55
2023-04-15T00:06:01.211Z,96.55
2023-04-15T00:07:01.159Z,96.24
2023-04-15T00:08:01.195Z,96.34
2023-04-15T00:09:01.563Z,96.66
2023-04-15T00:10:01.113Z,96.97
2023-04-15T00:11:01.131Z,97.07
2023-04-15T00:12:01.193Z,97.28
2023-04-15T00:13:01.125Z,97.28
2023-04-15T00:14:01.128Z,97.49
2023-04-15T00:15:01.169Z,97.07
2023-04-15T00:16:01.119Z,97.07
2023-04-15T00:17:01.148Z,97.07
2023-04-15T00:18:01.213Z,97.80
2023-04-15T00:19:01.291Z,97.80
2023-04-15T00:20:01.016Z,97.59
2023-04-15T00:21:01.042Z,97.80
2023-04-15T00:22:00.989Z,97.96
2023-04-15T00:23:00.991Z,97.75
2023-04-15T00:24:00.998Z,97.34
2023-04-15T00:25:01.015Z,97.34
2023-04-15T00:26:00.988Z,97.34
2023-04-15T00:27:00.997Z,97.44
2023-04-15T00:28:00.938Z,97.96
2023-04-15T00:29:01.116Z,97.96
2023-04-15T00:30:01.019Z,97.65
2023-04-15T00:31:00.948Z,97.24
2023-04-15T00:32:01.015Z,96.86
2023-04-15T00:33:00.923Z,96.66
2023-04-15T00:34:00.944Z,96.45
2023-04-15T00:35:00.945Z,96.24
2023-04-15T00:36:00.893Z,96.03
2023-04-15T00:37:00.880Z,96.14
2023-04-15T00:38:00.848Z,96.97
2023-04-15T00:39:01.050Z,97.38
2023-04-15T00:40:00.867Z,97.38
2023-04-15T00:41:00.834Z,97.38
2023-04-15T00:42:00.867Z,97.17
2023-04-15T00:43:00.818Z,97.12
2023-04-15T00:44:00.806Z,96.91
2023-04-15T00:45:00.819Z,96.60
2023-04-15T00:46:00.909Z,96.50
2023-04-15T00:47:00.770Z,96.81
2023-04-15T00:48:00.900Z,96.81
2023-04-15T00:49:00.847Z,96.70
2023-04-15T00:50:00.757Z,96.81
2023-04-15T00:51:00.738Z,96.70
2023-04-15T00:52:00.708Z,96.81
2023-04-15T00:53:00.738Z,97.43
2023-04-15T00:54:00.679Z,97.74
2023-04-15T00:55:00.682Z,97.95
2023-04-15T00:56:00.724Z,97.85
2023-04-15T00:57:00.662Z,97.64
2023-04-15T00:58:00.744Z,97.43
2023-04-15T00:59:00.814Z,97.43
2023-04-15T01:00:00.643Z,97.43
2023-04-15T01:01:00.650Z,97.43
2023-04-15T01:02:00.793Z,97.53
2023-04-15T01:03:00.817Z,97.64
2023-04-15T01:04:00.680Z,97.47
2023-04-15T01:05:00.616Z,97.37
2023-04-15T01:06:03.421Z,97.16
2023-04-15T01:07:00.576Z,97.16
2023-04-15T01:08:00.588Z,96.95
2023-04-15T01:09:00.718Z,97.06
2023-04-15T01:10:00.541Z,96.95
2023-04-15T01:11:00.533Z,96.89
2023-04-15T01:12:00.500Z,96.79
2023-04-15T01:13:00.521Z,96.48
2023-04-15T01:14:00.490Z,96.37
2023-04-15T01:15:00.511Z,96.37
2023-04-15T01:16:00.576Z,96.89
2023-04-15T01:17:00.488Z,97.25
2023-04-15T01:18:00.579Z,97.35
2023-04-15T01:19:00.658Z,97.45
2023-04-15T01:20:00.440Z,97.92
2023-04-15T01:21:00.428Z,98.13
2023-04-15T01:22:00.391Z,98.23
2023-04-15T01:23:00.411Z,98.44
2023-04-15T01:24:00.447Z,98.44
2023-04-15T01:25:00.445Z,98.33
2023-04-15T01:26:00.363Z,98.54
2023-04-15T01:27:00.356Z,98.65
2023-04-15T01:28:00.322Z,98.80
2023-04-15T01:29:01.309Z,98.80
2023-04-15T01:30:00.342Z,98.80
2023-04-15T01:31:00.388Z,98.59
2023-04-15T01:32:00.314Z,98.48
2023-04-15T01:33:00.409Z,98.27
2023-04-15T01:34:00.295Z,98.07
2023-04-15T01:35:00.316Z,97.96
2023-04-15T01:36:00.246Z,97.71
2023-04-15T01:37:00.326Z,97.86
2023-04-15T01:38:00.292Z,98.59
2023-04-15T01:39:00.659Z,98.80
2023-04-15T01:40:00.299Z,98.80
2023-04-15T01:41:00.307Z,98.59
2023-04-15T01:42:00.229Z,98.48
2023-04-15T01:43:00.257Z,98.17
2023-04-15T01:44:00.201Z,97.96
2023-04-15T01:45:00.181Z,97.96
2023-04-15T01:46:00.182Z,98.07
2023-04-15T01:47:00.336Z,98.07
2023-04-15T01:48:00.232Z,98.07
2023-04-15T01:49:00.364Z,97.96
2023-04-15T01:50:00.136Z,97.86
2023-04-15T01:51:00.191Z,98.17
2023-04-15T01:52:00.130Z,98.27
2023-04-15T01:53:00.114Z,98.38
2023-04-15T01:54:00.145Z,98.27
2023-04-15T01:55:00.056Z,98.17
2023-04-15T01:56:00.103Z,98.07
2023-04-15T01:57:00.131Z,97.96
2023-04-15T01:58:00.055Z,97.75
2023-04-15T01:59:00.246Z,97.44
2023-04-15T02:00:00.161Z,97.24
2023-04-15T02:01:00.151Z,97.03
2023-04-15T02:02:00.090Z,96.82
2023-04-15T02:03:00.045Z,96.82
2023-04-15T02:04:00.020Z,96.72
2023-04-15T02:04:59.975Z,96.61
2023-04-15T02:05:59.987Z,96.57
2023-04-15T02:06:59.964Z,96.57
2023-04-15T02:07:59.944Z,97.09
2023-04-15T02:09:00.261Z,97.40
2023-04-15T02:09:59.909Z,97.92
2023-04-15T02:10:59.953Z,98.13
2023-04-15T02:11:59.895Z,98.33
2023-04-15T02:12:59.969Z,98.44
2023-04-15T02:13:59.878Z,98.13
2023-04-15T02:14:59.904Z,98.65
2023-04-15T02:15:59.909Z,99.16
2023-04-15T02:16:59.927Z,99.58
2023-04-15T02:17:59.880Z,99.68
2023-04-15T02:19:00.144Z,99.58
2023-04-15T02:19:59.832Z,99.27
2023-04-15T02:20:59.829Z,98.96
2023-04-15T02:21:59.786Z,98.75
2023-04-15T02:22:59.796Z,99.06
2023-04-15T02:23:59.805Z,99.27
2023-04-15T02:24:59.869Z,99.68
2023-04-15T02:25:59.743Z,99.90
2023-04-15T02:26:59.736Z,99.90
2023-04-15T02:27:59.777Z,99.99
2023-04-15T02:28:59.950Z,99.99
2023-04-15T02:29:59.720Z,99.99
2023-04-15T02:30:59.755Z,99.99
2023-04-15T02:31:59.735Z,99.99
2023-04-15T02:32:59.733Z,99.99
2023-04-15T02:33:59.752Z,99.99
2023-04-15T02:34:59.678Z,99.99
2023-04-15T02:35:59.651Z,99.99
2023-04-15T02:36:59.657Z,99.99
2023-04-15T02:37:59.666Z,99.68
2023-04-15T02:38:59.838Z,99.48
2023-04-15T02:39:59.660Z,99.32
2023-04-15T02:41:00.223Z,99.01
2023-04-15T02:41:59.604Z,98.59
2023-04-15T02:42:59.562Z,98.80
2023-04-15T02:43:59.635Z,99.11
2023-04-15T02:44:59.604Z,99.11
2023-04-15T02:45:59.572Z,98.90
2023-04-15T02:46:59.574Z,98.90
2023-04-15T02:47:59.625Z,99.32
2023-04-15T02:48:59.990Z,99.52
2023-04-15T02:49:59.493Z,99.84
2023-04-15T02:50:59.540Z,99.63
2023-04-15T02:52:00.094Z,99.63
2023-04-15T02:52:59.536Z,99.73
2023-04-15T02:53:59.474Z,99.94
2023-04-15T02:54:59.485Z,99.84
2023-04-15T02:55:59.455Z,99.63
2023-04-15T02:56:59.472Z,99.32
2023-04-15T02:57:59.437Z,99.11
2023-04-15T02:58:59.551Z,98.90
2023-04-15T02:59:59.400Z,98.69
2023-04-15T03:00:59.456Z,98.48
2023-04-15T03:01:59.423Z,98.38
2023-04-15T03:02:59.557Z,98.59
2023-04-15T03:03:59.456Z,99.63
2023-04-15T03:04:59.360Z,99.84
2023-04-15T03:05:59.329Z,99.99
2023-04-15T03:06:59.356Z,99.99
2023-04-15T03:07:59.310Z,99.99
2023-04-15T03:08:59.442Z,99.99
2023-04-15T03:09:59.328Z,99.99
2023-04-15T03:10:59.311Z,99.99
2023-04-15T03:11:59.278Z,99.99
2023-04-15T03:12:59.291Z,99.99
2023-04-15T03:13:59.245Z,99.99
2023-04-15T03:14:59.267Z,99.99
2023-04-15T03:15:59.326Z,99.99
2023-04-15T03:16:59.232Z,99.99
2023-04-15T03:17:59.309Z,99.99
2023-04-15T03:18:59.369Z,99.99
2023-04-15T03:19:59.289Z,99.99
2023-04-15T03:20:59.255Z,99.99
2023-04-15T03:21:59.224Z,99.99
2023-04-15T03:22:59.220Z,99.99
2023-04-15T03:23:59.155Z,99.99
2023-04-15T03:24:59.191Z,99.99
2023-04-15T03:25:59.121Z,99.99
2023-04-15T03:26:59.109Z,99.99
2023-04-15T03:27:59.118Z,99.99
2023-04-15T03:28:59.364Z,99.99
2023-04-15T03:29:59.100Z,99.99
2023-04-15T03:30:59.121Z,99.99
2023-04-15T03:31:59.078Z,99.99
2023-04-15T03:32:59.240Z,99.99
2023-04-15T03:33:59.102Z,99.99
2023-04-15T03:34:59.045Z,99.99
2023-04-15T03:35:59.129Z,99.99
2023-04-15T03:36:59.019Z,99.99
2023-04-15T03:37:58.996Z,99.99
2023-04-15T03:38:59.232Z,99.99
2023-04-15T03:39:59.020Z,99.99
2023-04-15T03:40:58.979Z,99.99
2023-04-15T03:41:58.973Z,99.99
2023-04-15T03:42:58.947Z,99.99
2023-04-15T03:43:58.973Z,99.99
2023-04-15T03:44:58.936Z,99.99
2023-04-15T03:46:00.208Z,99.99
2023-04-15T03:46:58.906Z,99.99
2023-04-15T03:48:15.631Z,99.99
2023-04-15T03:48:59.081Z,99.99
2023-04-15T03:49:58.920Z,99.99
2023-04-15T03:50:58.897Z,99.99
2023-04-15T03:51:58.891Z,99.99
2023-04-15T03:52:58.867Z,99.99
2023-04-15T03:53:58.883Z,99.99
2023-04-15T03:54:58.836Z,99.99
2023-04-15T03:55:58.871Z,99.99
2023-04-15T03:56:58.821Z,99.99
2023-04-15T03:57:58.824Z,99.99
2023-04-15T03:58:59.311Z,99.99
2023-04-15T03:59:58.775Z,99.99
2023-04-15T04:00:58.755Z,99.99
2023-04-15T04:01:58.821Z,99.99
2023-04-15T04:02:58.880Z,99.99
2023-04-15T04:03:58.818Z,99.99
2023-04-15T04:04:58.705Z,99.79
2023-04-15T04:05:58.676Z,99.90
2023-04-15T04:06:58.656Z,99.99
2023-04-15T04:07:58.628Z,99.99
2023-04-15T04:08:58.878Z,99.99
2023-04-15T04:09:58.689Z,99.99
2023-04-15T04:10:58.606Z,99.99
2023-04-15T04:11:58.656Z,99.99
2023-04-15T04:12:58.571Z,99.99
2023-04-15T04:13:58.633Z,99.99
2023-04-15T04:14:58.558Z,99.99
2023-04-15T04:15:58.827Z,99.99
2023-04-15T04:16:58.584Z,99.99
2023-04-15T04:17:58.623Z,99.99
2023-04-15T04:18:58.530Z,99.99
2023-04-15T04:19:58.567Z,99.99
2023-04-15T04:20:58.510Z,99.99
2023-04-15T04:21:58.536Z,99.99
2023-04-15T04:22:58.496Z,99.99
2023-04-15T04:23:58.519Z,99.99
2023-04-15T04:24:58.479Z,99.99
2023-04-15T04:25:58.459Z,99.99
2023-04-15T04:26:58.478Z,99.99
2023-04-15T04:27:58.464Z,99.99
2023-04-15T04:28:58.566Z,99.99
2023-04-15T04:29:58.495Z,99.99
2023-04-15T04:30:58.387Z,99.99
2023-04-15T04:31:58.531Z,99.99
2023-04-15T04:32:58.463Z,99.99
2023-04-15T04:33:58.380Z,99.99
2023-04-15T04:34:58.368Z,99.99
2023-04-15T04:35:58.384Z,99.99
2023-04-15T04:36:58.391Z,99.99
2023-04-15T04:37:58.364Z,99.99
2023-04-15T04:38:58.379Z,99.99
2023-04-15T04:39:58.306Z,99.99
2023-04-15T04:40:58.346Z,99.99
2023-04-15T04:41:58.311Z,99.99
2023-04-15T04:42:58.299Z,99.99
2023-04-15T04:43:58.269Z,99.99
2023-04-15T04:44:58.289Z,99.99
2023-04-15T04:45:58.305Z,99.99
2023-04-15T04:46:58.247Z,99.99
2023-04-15T04:47:58.301Z,99.99
2023-04-15T04:48:58.197Z,99.99
2023-04-15T04:49:58.193Z,99.99
2023-04-15T04:50:58.217Z,99.99
2023-04-15T04:51:58.606Z,99.99
2023-04-15T04:52:58.253Z,99.99
2023-04-15T04:53:58.152Z,99.99
2023-04-15T04:54:58.134Z,99.99
2023-04-15T04:55:58.166Z,99.99
2023-04-15T04:56:58.104Z,99.99
2023-04-15T04:57:58.153Z,99.99
2023-04-15T04:58:58.277Z,99.99
2023-04-15T04:59:58.102Z,99.99
2023-04-15T05:00:58.148Z,99.99
2023-04-15T05:01:58.141Z,99.99
2023-04-15T05:02:58.168Z,99.99
2023-04-15T05:03:58.312Z,99.99
2023-04-15T05:04:58.064Z,99.99
2023-04-15T05:05:58.083Z,99.99
2023-04-15T05:06:58.029Z,99.99
2023-04-15T05:07:58.073Z,99.99
2023-04-15T05:08:57.997Z,99.99
2023-04-15T05:09:58.018Z,99.99
2023-04-15T05:10:58.011Z,99.99
2023-04-15T05:11:57.975Z,99.99
2023-04-15T05:12:57.949Z,99.99
2023-04-15T05:13:58.022Z,99.99
2023-04-15T05:14:57.971Z,99.99
2023-04-15T05:15:58.043Z,99.99
2023-04-15T05:16:57.967Z,99.99
2023-04-15T05:17:58.010Z,99.99
2023-04-15T05:18:57.972Z,99.99
2023-04-15T05:19:57.879Z,99.99
2023-04-15T05:20:57.890Z,99.99
2023-04-15T05:21:57.929Z,99.99
2023-04-15T05:22:57.864Z,99.99
2023-04-15T05:23:57.882Z,99.99
2023-04-15T05:24:57.851Z,99.99
2023-04-15T05:25:57.843Z,99.99
2023-04-15T05:26:57.808Z,99.99
2023-04-15T05:27:57.877Z,99.99
2023-04-15T05:28:57.812Z,99.99
2023-04-15T05:29:57.800Z,99.99
2023-04-15T05:30:57.839Z,99.99
2023-04-15T05:31:57.810Z,99.99
2023-04-15T05:32:57.822Z,99.99
2023-04-15T05:33:57.794Z,99.99
2023-04-15T05:34:57.738Z,99.99
2023-04-15T05:35:57.720Z,99.99
2023-04-15T05:36:57.754Z,99.99
2023-04-15T05:37:57.828Z,99.99
2023-04-15T05:38:57.730Z,99.99
2023-04-15T05:39:57.700Z,99.99
2023-04-15T05:40:57.747Z,99.99
2023-04-15T05:41:57.732Z,99.99
2023-04-15T05:42:57.772Z,99.99
2023-04-15T05:43:57.671Z,99.99
2023-04-15T05:44:57.633Z,99.99
2023-04-15T05:45:57.694Z,99.99
2023-04-15T05:46:57.618Z,99.99
2023-04-15T05:47:57.696Z,99.99
2023-04-15T05:48:57.623Z,99.99
2023-04-15T05:49:57.587Z,99.99
2023-04-15T05:50:57.629Z,99.99
2023-04-15T05:51:57.610Z,99.99
2023-04-15T05:52:57.540Z,99.99
2023-04-15T05:53:57.599Z,99.99
2023-04-15T05:54:57.521Z,99.99
2023-04-15T05:55:57.540Z,99.99
2023-04-15T05:56:57.517Z,99.99
2023-04-15T05:57:57.504Z,99.99
2023-04-15T05:58:57.497Z,99.99
2023-04-15T05:59:57.523Z,99.99
2023-04-15T06:00:57.488Z,99.99
2023-04-15T06:01:57.520Z,99.99
2023-04-15T06:02:57.583Z,99.99
2023-04-15T06:03:57.667Z,99.99
2023-04-15T06:04:57.516Z,99.99
2023-04-15T06:05:57.424Z,99.99
2023-04-15T06:06:57.405Z,99.99
2023-04-15T06:07:57.410Z,99.99
2023-04-15T06:08:57.475Z,99.99
2023-04-15T06:09:57.420Z,99.99
2023-04-15T06:10:57.389Z,99.99
2023-04-15T06:11:57.360Z,99.99
2023-04-15T06:12:57.351Z,99.99
2023-04-15T06:13:57.362Z,99.99
2023-04-15T06:14:58.977Z,99.99
2023-04-15T06:15:57.328Z,99.99
2023-04-15T06:16:57.358Z,99.99
2023-04-15T06:17:57.416Z,99.99
2023-04-15T06:18:57.283Z,99.99
2023-04-15T06:19:57.304Z,99.99
2023-04-15T06:20:57.274Z,99.99
2023-04-15T06:21:57.292Z,99.99
2023-04-15T06:22:57.269Z,99.99
2023-04-15T06:23:57.280Z,99.99
2023-04-15T06:24:57.627Z,99.99
2023-04-15T06:25:57.223Z,99.99
2023-04-15T06:26:57.251Z,99.99
2023-04-15T06:27:57.237Z,99.99
2023-04-15T06:28:57.262Z,99.99
2023-04-15T06:29:57.181Z,99.99
2023-04-15T06:30:57.153Z,99.99
2023-04-15T06:31:57.212Z,99.99
2023-04-15T06:32:57.231Z,99.99
2023-04-15T06:33:57.148Z,99.99
2023-04-15T06:34:57.132Z,99.99
2023-04-15T06:35:57.144Z,99.99
2023-04-15T06:36:57.106Z,99.99
2023-04-15T06:37:57.089Z,99.99
2023-04-15T06:38:57.088Z,99.99
2023-04-15T06:39:57.120Z,99.99
2023-04-15T06:40:57.084Z,99.99
2023-04-15T06:41:57.088Z,99.99
2023-04-15T06:42:57.051Z,99.99
2023-04-15T06:43:57.033Z,99.99
2023-04-15T06:44:57.016Z,99.99
2023-04-15T06:45:57.206Z,99.78
2023-04-15T06:46:57.033Z,99.52
2023-04-15T06:47:57.059Z,99.11
2023-04-15T06:48:56.976Z,98.70
2023-04-15T06:49:57.002Z,98.50
2023-04-15T06:50:56.982Z,98.08
2023-04-15T06:51:56.962Z,97.63
2023-04-15T06:52:56.979Z,97.31
2023-04-15T06:53:56.996Z,97.11
2023-04-15T06:54:57.025Z,96.91
2023-04-15T06:55:56.947Z,97.01
2023-04-15T06:56:56.920Z,96.70
2023-04-15T06:57:56.915Z,95.87
2023-04-15T06:58:56.884Z,95.31
2023-04-15T06:59:56.916Z,95.42
2023-04-15T07:00:56.877Z,95.83
2023-04-15T07:01:56.881Z,95.93
2023-04-15T07:02:56.906Z,95.42
2023-04-15T07:03:56.870Z,95.10
2023-04-15T07:04:56.820Z,95.17
2023-04-15T07:05:57.603Z,95.17
2023-04-15T07:06:56.782Z,94.96
2023-04-15T07:07:56.819Z,94.65
2023-04-15T07:08:57.003Z,94.24
2023-04-15T07:09:56.798Z,94.30
2023-04-15T07:10:56.747Z,94.81
2023-04-15T07:11:56.761Z,94.81
2023-04-15T07:12:56.777Z,94.40
2023-04-15T07:13:56.751Z,94.71
2023-04-15T07:14:56.758Z,94.40
2023-04-15T07:15:56.699Z,93.84
2023-04-15T07:16:56.784Z,93.33
2023-04-15T07:17:56.821Z,93.23
2023-04-15T07:18:56.673Z,92.82
2023-04-15T07:19:56.689Z,92.92
2023-04-15T07:20:56.654Z,92.61
2023-04-15T07:21:56.654Z,92.61
2023-04-15T07:22:56.681Z,92.71
2023-04-15T07:23:56.633Z,92.40
2023-04-15T07:24:56.606Z,92.10
2023-04-15T07:25:56.644Z,91.99
2023-04-15T07:26:58.482Z,91.89
2023-04-15T07:27:56.620Z,91.68
2023-04-15T07:28:56.605Z,91.58
2023-04-15T07:29:56.588Z,91.38
2023-04-15T07:30:56.592Z,91.58
2023-04-15T07:31:56.523Z,92.16
2023-04-15T07:32:56.571Z,92.77
2023-04-15T07:33:56.506Z,92.16
2023-04-15T07:34:56.541Z,91.64
2023-04-15T07:35:56.540Z,91.44
2023-04-15T07:36:56.539Z,91.53
2023-04-15T07:37:56.505Z,91.13
2023-04-15T07:38:56.483Z,90.30
2023-04-15T07:39:56.455Z,91.08
2023-04-15T07:40:56.509Z,90.88
2023-04-15T07:41:56.444Z,91.70
2023-04-15T07:42:56.425Z,91.60
2023-04-15T07:43:56.413Z,91.19
2023-04-15T07:44:56.449Z,90.26
2023-04-15T07:45:56.448Z,90.16
2023-04-15T07:46:56.452Z,90.67
2023-04-15T07:47:56.454Z,90.94
2023-04-15T07:48:56.352Z,91.04
2023-04-15T07:49:56.360Z,89.91
2023-04-15T07:50:56.368Z,89.19
2023-04-15T07:51:56.338Z,90.01
2023-04-15T07:52:56.314Z,89.87
2023-04-15T07:53:56.293Z,89.36
2023-04-15T07:54:56.347Z,88.64
2023-04-15T07:55:56.269Z,87.04
2023-04-15T07:56:56.289Z,89.19
2023-04-15T07:57:56.309Z,89.04
2023-04-15T07:58:56.286Z,87.55
2023-04-15T07:59:56.244Z,87.34
2023-04-15T08:00:56.209Z,87.55
2023-04-15T08:01:56.292Z,87.55
2023-04-15T08:02:56.416Z,87.92
2023-04-15T08:03:56.394Z,87.61
2023-04-15T08:04:56.309Z,87.40
2023-04-15T08:05:56.149Z,87.85
2023-04-15T08:06:56.179Z,87.71
2023-04-15T08:07:56.160Z,88.12
2023-04-15T08:08:56.173Z,87.51
2023-04-15T08:09:56.151Z,87.71
2023-04-15T08:10:56.138Z,87.92
2023-04-15T08:11:56.146Z,88.29
2023-04-15T08:12:56.107Z,86.44
2023-04-15T08:13:56.089Z,86.85
2023-04-15T08:14:56.109Z,86.44
2023-04-15T08:15:56.124Z,86.13
2023-04-15T08:16:56.094Z,86.95
2023-04-15T08:17:56.075Z,87.12
2023-04-15T08:18:56.067Z,86.05
2023-04-15T08:19:56.038Z,86.25
2023-04-15T08:20:56.006Z,85.19
2023-04-15T08:21:56.014Z,84.64
2023-04-15T08:22:56.054Z,85.05
2023-04-15T08:23:56.022Z,85.01
2023-04-15T08:24:56.293Z,82.55
2023-04-15T08:25:56.016Z,82.62
2023-04-15T08:26:56.109Z,84.36
2023-04-15T08:27:55.937Z,84.25
2023-04-15T08:28:55.960Z,82.21
2023-04-15T08:29:55.879Z,83.68
2023-04-15T08:30:55.915Z,83.88
2023-04-15T08:31:56.016Z,83.82
2023-04-15T08:32:55.962Z,83.72
2023-04-15T08:33:55.876Z,84.23
2023-04-15T08:34:55.901Z,84.78
2023-04-15T08:35:55.828Z,85.91
2023-04-15T08:36:55.863Z,85.80
2023-04-15T08:37:55.823Z,84.88
2023-04-15T08:38:55.877Z,86.36
2023-04-15T08:39:55.793Z,86.15
2023-04-15T08:40:55.805Z,86.36
2023-04-15T08:41:55.858Z,87.08
2023-04-15T08:42:55.788Z,85.95
2023-04-15T08:43:55.775Z,85.85
2023-04-15T08:44:55.810Z,86.77
2023-04-15T08:45:55.760Z,87.49
2023-04-15T08:46:55.780Z,86.25
2023-04-15T08:47:55.887Z,85.39
2023-04-15T08:48:55.790Z,86.93
2023-04-15T08:49:55.753Z,86.42
2023-04-15T08:50:55.698Z,86.83
2023-04-15T08:51:55.677Z,85.71
2023-04-15T08:52:55.685Z,86.83
2023-04-15T08:53:55.649Z,85.09
2023-04-15T08:54:55.703Z,85.33
2023-04-15T08:55:55.635Z,86.05
2023-04-15T08:56:55.701Z,87.28
2023-04-15T08:57:55.674Z,88.10
2023-04-15T08:58:55.740Z,86.87
2023-04-15T08:59:55.580Z,87.70
2023-04-15T09:00:55.757Z,87.49
2023-04-15T09:01:55.664Z,86.15
2023-04-15T09:02:55.666Z,86.57
2023-04-15T09:03:55.664Z,87.90
2023-04-15T09:04:55.607Z,88.06
2023-04-15T09:05:55.533Z,86.63
2023-04-15T09:06:55.543Z,85.71
2023-04-15T09:07:55.588Z,87.34
2023-04-15T09:08:55.601Z,87.04
2023-04-15T09:09:55.581Z,86.83
2023-04-15T09:10:55.535Z,87.10
2023-04-15T09:11:55.471Z,86.73
2023-04-15T09:12:55.472Z,86.11
2023-04-15T09:13:55.508Z,86.63
2023-04-15T09:14:55.438Z,86.32
2023-04-15T09:15:55.438Z,86.32
2023-04-15T09:16:55.490Z,86.25
2023-04-15T09:17:55.460Z,87.70
2023-04-15T09:18:55.478Z,87.79
2023-04-15T09:19:55.385Z,88.31
2023-04-15T09:20:55.502Z,88.31
2023-04-15T09:21:58.001Z,87.08
2023-04-15T09:22:55.386Z,88.10
2023-04-15T09:23:55.354Z,87.90
2023-04-15T09:24:55.373Z,88.10
2023-04-15T09:25:55.423Z,88.62
2023-04-15T09:26:55.424Z,88.00
2023-04-15T09:27:55.351Z,87.38
2023-04-15T09:28:55.305Z,88.62
2023-04-15T09:29:55.316Z,88.51
2023-04-15T09:30:55.336Z,88.92
2023-04-15T09:31:55.284Z,87.70
2023-04-15T09:32:55.324Z,87.38
2023-04-15T09:33:55.272Z,87.38
2023-04-15T09:34:55.239Z,87.38
2023-04-15T09:35:55.217Z,87.84
2023-04-15T09:36:55.253Z,88.86
2023-04-15T09:37:55.268Z,89.43
2023-04-15T09:38:55.196Z,89.13
2023-04-15T09:39:55.168Z,89.43
2023-04-15T09:40:55.204Z,88.68
2023-04-15T09:41:55.564Z,87.96
2023-04-15T09:42:55.199Z,88.78
2023-04-15T09:43:55.166Z,89.09
2023-04-15T09:44:55.141Z,89.66
2023-04-15T09:45:55.146Z,88.94
2023-04-15T09:46:55.145Z,88.02
2023-04-15T09:47:56.921Z,86.79
2023-04-15T09:48:55.237Z,86.07
2023-04-15T09:49:55.157Z,86.52
2023-04-15T09:50:55.261Z,87.82
2023-04-15T09:52:04.431Z,88.43
2023-04-15T09:52:55.047Z,88.12
2023-04-15T09:53:55.159Z,87.51
2023-04-15T09:55:18.653Z,87.20
2023-04-15T09:55:55.038Z,88.33
2023-04-15T09:56:55.019Z,88.84
2023-04-15T09:57:54.992Z,86.99
2023-04-15T09:58:55.066Z,87.92
2023-04-15T09:59:54.976Z,87.51
2023-04-15T10:00:54.961Z,87.61
2023-04-15T10:01:55.231Z,87.51
2023-04-15T10:02:55.325Z,86.38
2023-04-15T10:03:55.250Z,86.90
2023-04-15T10:04:54.983Z,86.28
2023-04-15T10:05:55.270Z,86.69
2023-04-15T10:06:54.946Z,88.53
2023-04-15T10:07:54.916Z,85.97
2023-04-15T10:08:54.910Z,86.99
2023-04-15T10:09:54.874Z,86.48
2023-04-15T10:10:54.853Z,88.33
2023-04-15T10:11:54.881Z,86.07
2023-04-15T10:12:54.850Z,86.34
2023-04-15T10:13:54.846Z,87.47
2023-04-15T10:14:54.828Z,85.93
2023-04-15T10:15:54.880Z,85.63
2023-04-15T10:16:54.808Z,85.52
2023-04-15T10:17:54.824Z,85.87
2023-04-15T10:18:54.813Z,84.84
2023-04-15T10:19:54.799Z,86.38
2023-04-15T10:20:54.882Z,87.30
2023-04-15T10:21:54.742Z,87.41
2023-04-15T10:22:54.727Z,86.28
2023-04-15T10:23:54.805Z,86.28
2023-04-15T10:24:54.749Z,85.77
2023-04-15T10:25:54.712Z,86.48
2023-04-15T10:26:54.712Z,86.99
2023-04-15T10:27:54.670Z,87.41
2023-04-15T10:28:54.739Z,87.30
2023-04-15T10:29:54.700Z,87.71
2023-04-15T10:30:54.704Z,88.84
2023-04-15T10:31:54.690Z,86.99
2023-04-15T10:32:54.662Z,85.80
2023-04-15T10:33:54.607Z,86.11
2023-04-15T10:34:54.864Z,86.22
2023-04-15T10:35:54.689Z,86.63
2023-04-15T10:36:54.621Z,87.24
2023-04-15T10:37:54.632Z,87.76
2023-04-15T10:38:54.595Z,86.22
2023-04-15T10:39:54.551Z,87.55
2023-04-15T10:40:54.530Z,87.45
2023-04-15T10:41:54.559Z,87.96
2023-04-15T10:42:54.562Z,88.17
2023-04-15T10:43:54.523Z,87.65
2023-04-15T10:44:54.615Z,86.93
2023-04-15T10:45:54.498Z,87.45
2023-04-15T10:46:54.623Z,86.22
2023-04-15T10:47:54.569Z,87.14
2023-04-15T10:48:54.489Z,88.17
2023-04-15T10:49:54.481Z,88.27
2023-04-15T10:50:54.448Z,88.37
2023-04-15T10:51:54.435Z,87.76
2023-04-15T10:52:54.468Z,88.06
2023-04-15T10:53:54.404Z,88.78
2023-04-15T10:54:54.392Z,86.93
2023-04-15T10:55:54.474Z,87.45
2023-04-15T10:56:54.387Z,87.45
2023-04-15T10:57:54.559Z,87.96
2023-04-15T10:58:54.373Z,87.55
2023-04-15T10:59:54.381Z,87.65
2023-04-15T11:00:54.350Z,88.00
2023-04-15T11:01:54.526Z,87.28
2023-04-15T11:02:54.422Z,88.62
2023-04-15T11:03:54.457Z,87.70
2023-04-15T11:04:54.349Z,87.79
2023-04-15T11:05:54.347Z,88.31
2023-04-15T11:06:54.295Z,88.51
2023-04-15T11:07:54.320Z,87.79
2023-04-15T11:08:54.300Z,90.16
2023-04-15T11:09:54.481Z,89.13
2023-04-15T11:10:54.273Z,89.75
2023-04-15T11:11:54.227Z,89.70
2023-04-15T11:12:54.225Z,89.81
2023-04-15T11:13:54.201Z,88.98
2023-04-15T11:14:54.201Z,88.57
2023-04-15T11:15:54.222Z,88.78
2023-04-15T11:16:54.188Z,89.19
2023-04-15T11:17:54.213Z,88.78
2023-04-15T11:18:54.202Z,89.60
2023-04-15T11:19:54.123Z,88.06
2023-04-15T11:20:54.165Z,87.45
2023-04-15T11:21:54.112Z,88.88
2023-04-15T11:23:02.574Z,87.65
2023-04-15T11:23:54.255Z,87.76
2023-04-15T11:24:54.131Z,87.45
2023-04-15T11:25:54.088Z,87.34
2023-04-15T11:26:54.065Z,88.27
2023-04-15T11:27:54.088Z,88.78
2023-04-15T11:28:54.091Z,87.96
2023-04-15T11:29:54.025Z,86.83
2023-04-15T11:30:54.056Z,87.04
2023-04-15T11:31:54.062Z,87.34
2023-04-15T11:32:54.046Z,87.65
2023-04-15T11:33:54.049Z,89.29
2023-04-15T11:34:54.019Z,87.76
2023-04-15T11:35:53.972Z,87.45
2023-04-15T11:36:53.956Z,86.73
2023-04-15T11:37:53.933Z,87.34
2023-04-15T11:38:53.979Z,87.45
2023-04-15T11:39:53.911Z,86.83
2023-04-15T11:40:53.907Z,86.32
2023-04-15T11:41:53.901Z,86.73
2023-04-15T11:42:53.928Z,87.34
2023-04-15T11:43:53.890Z,86.52
2023-04-15T11:44:53.900Z,86.73
2023-04-15T11:45:53.927Z,86.79
2023-04-15T11:46:53.887Z,85.97
2023-04-15T11:47:53.935Z,86.69
2023-04-15T11:48:53.866Z,85.97
2023-04-15T11:49:53.832Z,85.87
2023-04-15T11:50:53.788Z,85.87
2023-04-15T11:51:53.814Z,87.41
2023-04-15T11:52:53.808Z,86.90
2023-04-15T11:53:53.778Z,86.18
2023-04-15T11:54:53.788Z,86.48
2023-04-15T11:55:53.737Z,86.07
2023-04-15T11:56:53.753Z,86.04
2023-04-15T11:57:53.742Z,86.24
2023-04-15T11:58:53.753Z,85.52
2023-04-15T11:59:53.717Z,85.42
2023-04-15T12:00:53.704Z,85.52
2023-04-15T12:01:53.722Z,84.80
2023-04-15T12:02:53.810Z,85.25
2023-04-15T12:03:53.770Z,85.05
2023-04-15T12:04:53.778Z,85.36
2023-04-15T12:05:53.640Z,85.83
2023-04-15T12:06:53.639Z,85.83
2023-04-15T12:07:53.648Z,86.65
2023-04-15T12:08:53.647Z,85.11
2023-04-15T12:09:53.640Z,85.63
2023-04-15T12:10:53.642Z,84.80
2023-04-15T12:11:53.590Z,85.42
2023-04-15T12:12:53.618Z,85.31
2023-04-15T12:13:53.559Z,84.91
2023-04-15T12:14:53.548Z,85.63
2023-04-15T12:15:53.590Z,86.04
2023-04-15T12:16:53.570Z,85.72
2023-04-15T12:17:53.548Z,85.42
2023-04-15T12:18:53.504Z,85.93
2023-04-15T12:19:53.548Z,85.11
2023-04-15T12:20:53.548Z,85.22
2023-04-15T12:21:53.506Z,86.14
2023-04-15T12:22:53.481Z,86.34
2023-04-15T12:23:53.437Z,85.31
2023-04-15T12:24:53.519Z,85.93
2023-04-15T12:25:53.424Z,85.42
2023-04-15T12:26:53.479Z,85.31
2023-04-15T12:27:53.508Z,85.63
2023-04-15T12:28:53.403Z,85.31
2023-04-15T12:29:53.411Z,86.24
2023-04-15T12:30:53.490Z,86.85
2023-04-15T12:31:53.386Z,87.16
2023-04-15T12:32:53.406Z,85.63
2023-04-15T12:33:53.324Z,86.85
2023-04-15T12:34:53.478Z,85.63
2023-04-15T12:35:53.406Z,86.04
2023-04-15T12:36:53.331Z,85.83
2023-04-15T12:37:53.315Z,85.22
2023-04-15T12:38:53.328Z,86.14
2023-04-15T12:39:53.305Z,86.24
2023-04-15T12:40:53.291Z,86.65
2023-04-15T12:41:53.270Z,86.44
2023-04-15T12:42:53.290Z,86.24
2023-04-15T12:43:53.308Z,86.14
2023-04-15T12:44:53.277Z,85.72
2023-04-15T12:45:53.265Z,85.31
2023-04-15T12:46:53.292Z,86.55
2023-04-15T12:47:53.267Z,86.44
2023-04-15T12:48:53.211Z,86.14
2023-04-15T12:49:53.235Z,86.04
2023-04-15T12:50:53.198Z,85.63
2023-04-15T12:51:53.159Z,86.04